Golovin, Alaska
Current Conditions -  °F | °C
As of 1:58 AM on Saturday 25 Oct 2014 (Local Time) from PAWM Reporting Station
Moderate Fog Moderate Fog  
Wind Chill: 26°   Ceiling: 200
Heat Index: 33°   Visibility: 0.25mi
Dew Point: 33°   Wind: 8mph
Humidity: 100%   Direction: 170°S
Pressure: 29.72"   Gusts: NA
Location:  64.56°N, 163.01°W
Report Text: PAWM 250958Z AUTO 17007KT 1/4SM FG OVC002 01/01 A2972 RMK AO2 UPE00RAB00E26 SLP072 P0000 T00060006 FZRANO
Loading
Personal Weather Stations






























Interactive Weather Map
Tropical Storm Tracking
New forecast layout! Learn more

10-Day Weather Forecast

Advertisements
Track Severe Weather on mobile